Station Historical Data
Daily Summary for March 13, 2017 Units:  English    Metric   Both
Next Day »
Daily Weekly Monthly Yearly Custom
  High: Low: Average:
Temperature: 72.6 °F 48.7 °F 59 °F
Dew Point: 49.7 °F 32.5 °F 41.7 °F
Humidity: 74% 35% 54%
Wind Speed: 16.0mph 0.0mph 1.5mph
Wind Gust: 19.0mph - -
Wind- - SE
Pressure: 30.18 in 30.08 in -
Precipitation: 0.00 in    
Historical Graphs
 
 
Tabular Data for March 13, 2017
Time Temperature Dew Point Pressure Wind Wind Speed Wind Gust Humidity Rainfall Rate (Hourly) solar Conditions
00:02 52.8 °F 44.8 °F 30.18 in Calm   4.0 mph 74% 0.00 in 0.00 W/m2
00:07 52.7 °F 44.7 °F 30.18 in ESE 1.0 mph 6.0 mph 74% 0.00 in 0.00 W/m2
00:12 52.7 °F 44.7 °F 30.17 in Calm   5.0 mph 74% 0.00 in 0.00 W/m2
00:17 52.6 °F 44.6 °F 30.18 in ESE 1.0 mph 6.0 mph 74% 0.00 in 0.00 W/m2
00:22 52.5 °F 44.5 °F 30.18 in Calm   5.0 mph 74% 0.00 in 0.00 W/m2
00:27 52.5 °F 44.1 °F 30.18 in Calm   2.0 mph 73% 0.00 in 0.00 W/m2
00:32 52.4 °F 44.0 °F 30.18 in East 4.0 mph 6.0 mph 73% 0.00 in 0.00 W/m2
00:37 52.4 °F 44.0 °F 30.17 in ESE 4.0 mph 4.0 mph 73% 0.00 in 0.00 W/m2
00:42 52.3 °F 43.9 °F 30.17 in ESE 1.0 mph 2.0 mph 73% 0.00 in 0.00 W/m2
00:47 52.2 °F 43.5 °F 30.17 in Calm   2.0 mph 72% 0.00 in 0.00 W/m2
00:52 52.2 °F 43.5 °F 30.17 in ESE 1.0 mph 5.0 mph 72% 0.00 in 0.00 W/m2
00:57 52.1 °F 43.4 °F 30.17 in East 1.0 mph 4.0 mph 72% 0.00 in 0.00 W/m2
01:02 52.0 °F 43.3 °F 30.17 in East 2.0 mph 5.0 mph 72% 0.00 in 0.00 W/m2
01:07 51.9 °F 43.2 °F 30.17 in Calm   5.0 mph 72% 0.00 in 0.00 W/m2
01:12 51.8 °F 42.7 °F 30.17 in Calm   5.0 mph 71% 0.00 in 0.00 W/m2
01:17 51.8 °F 42.7 °F 30.17 in Calm   2.0 mph 71% 0.00 in 0.00 W/m2
01:22 51.7 °F 42.2 °F 30.17 in ESE 2.0 mph 4.0 mph 70% 0.00 in 0.00 W/m2
01:27 51.6 °F 41.8 °F 30.17 in ESE 1.0 mph 4.0 mph 69% 0.00 in 0.00 W/m2
01:32 51.6 °F 41.8 °F 30.17 in ESE 1.0 mph 6.0 mph 69% 0.00 in 0.00 W/m2
01:37 51.6 °F 41.8 °F 30.17 in ESE 4.0 mph 4.0 mph 69% 0.00 in 0.00 W/m2
01:42 51.5 °F 41.7 °F 30.17 in ESE 2.0 mph 6.0 mph 69% 0.00 in 0.00 W/m2
01:47 51.5 °F 41.3 °F 30.17 in East 6.0 mph 6.0 mph 68% 0.00 in 0.00 W/m2
01:52 51.4 °F 40.0 °F 30.17 in Calm   5.0 mph 65% 0.00 in 0.00 W/m2
01:57 51.4 °F 40.4 °F 30.17 in East 1.0 mph 6.0 mph 66% 0.00 in 0.00 W/m2
02:02 51.4 °F 40.0 °F 30.17 in ESE 1.0 mph 2.0 mph 65% 0.00 in 0.00 W/m2
02:07 51.3 °F 39.5 °F 30.17 in East 2.0 mph 4.0 mph 64% 0.00 in 0.00 W/m2
02:12 51.3 °F 39.5 °F 30.17 in Calm   4.0 mph 64% 0.00 in 0.00 W/m2
02:17 51.3 °F 39.2 °F 30.17 in Calm   4.0 mph 63% 0.00 in 0.00 W/m2
02:22 51.3 °F 39.2 °F 30.17 in Calm   1.0 mph 63% 0.00 in 0.00 W/m2
02:27 51.3 °F 39.2 °F 30.17 in ESE 5.0 mph 5.0 mph 63% 0.00 in 0.00 W/m2
02:32 51.2 °F 38.6 °F 30.17 in Calm   4.0 mph 62% 0.00 in 0.00 W/m2
02:37 51.2 °F 38.6 °F 30.17 in Calm   5.0 mph 62% 0.00 in 0.00 W/m2
02:42 51.2 °F 38.6 °F 30.17 in East 1.0 mph 6.0 mph 62% 0.00 in 0.00 W/m2
02:47 51.2 °F 37.8 °F 30.17 in Calm   6.0 mph 60% 0.00 in 0.00 W/m2
02:52 51.2 °F 37.4 °F 30.17 in East 1.0 mph 6.0 mph 59% 0.00 in 0.00 W/m2
02:57 51.2 °F 37.4 °F 30.17 in East 2.0 mph 5.0 mph 59% 0.00 in 0.00 W/m2
03:02 51.2 °F 37.0 °F 30.16 in East 6.0 mph 6.0 mph 58% 0.00 in 0.00 W/m2
03:07 51.2 °F 35.6 °F 30.16 in East 4.0 mph 5.0 mph 55% 0.00 in 0.00 W/m2
03:12 51.2 °F 35.6 °F 30.16 in East 5.0 mph 5.0 mph 55% 0.00 in 0.00 W/m2
03:18 51.2 °F 35.1 °F 30.16 in East 2.0 mph 6.0 mph 54% 0.00 in 0.00 W/m2
03:23 51.3 °F 35.7 °F 30.16 in East 4.0 mph 4.0 mph 55% 0.00 in 0.00 W/m2
03:28 51.4 °F 35.8 °F 30.16 in East 5.0 mph 5.0 mph 55% 0.00 in 0.00 W/m2
03:33 51.4 °F 35.3 °F 30.16 in East 6.0 mph 7.0 mph 54% 0.00 in 0.00 W/m2
03:38 51.3 °F 36.2 °F 30.16 in Calm   4.0 mph 56% 0.00 in 0.00 W/m2
03:43 51.2 °F 34.7 °F 30.16 in East 1.0 mph 2.0 mph 53% 0.00 in 0.00 W/m2
03:48 51.2 °F 35.6 °F 30.15 in Calm   5.0 mph 55% 0.00 in 0.00 W/m2
03:53 51.2 °F 34.7 °F 30.15 in East 1.0 mph 6.0 mph 53% 0.00 in 0.00 W/m2
03:58 51.2 °F 35.6 °F 30.15 in ENE 1.0 mph 3.0 mph 55% 0.00 in 0.00 W/m2
04:00 51.2 °F 34.7 °F 30.15 in Calm   3.0 mph 53% 0.00 in 0.00 W/m2
04:05 51.2 °F 36.1 °F 30.15 in Calm   4.0 mph 56% 0.00 in 0.00 W/m2
04:10 51.1 °F 35.0 °F 30.15 in Calm   4.0 mph 54% 0.00 in 0.00 W/m2
04:15 50.9 °F 35.3 °F 30.15 in ENE 1.0 mph 2.0 mph 55% 0.00 in 0.00 W/m2
04:20 50.8 °F 34.3 °F 30.15 in Calm   3.0 mph 53% 0.00 in 0.00 W/m2
04:25 50.7 °F 34.2 °F 30.14 in Calm   4.0 mph 53% 0.00 in 0.00 W/m2
04:30 50.5 °F 34.5 °F 30.14 in Calm   4.0 mph 54% 0.00 in 0.00 W/m2
04:35 50.4 °F 34.4 °F 30.14 in Calm   2.0 mph 54% 0.00 in 0.00 W/m2
04:40 50.1 °F 33.2 °F 30.14 in East 1.0 mph 5.0 mph 52% 0.00 in 0.00 W/m2
04:45 50.0 °F 33.1 °F 30.15 in Calm   4.0 mph 52% 0.00 in 0.00 W/m2
04:50 49.9 °F 32.5 °F 30.15 in Calm   1.0 mph 51% 0.00 in 0.00 W/m2
04:55 49.9 °F 32.5 °F 30.15 in Calm   1.0 mph 51% 0.00 in 0.00 W/m2
05:00 49.9 °F 33.0 °F 30.15 in Calm   5.0 mph 52% 0.00 in 0.00 W/m2
05:05 49.9 °F 34.8 °F 30.15 in ESE 1.0 mph 6.0 mph 56% 0.00 in 0.00 W/m2
05:10 49.7 °F 34.2 °F 30.15 in ESE 4.0 mph 9.0 mph 55% 0.00 in 0.00 W/m2
05:15 49.5 °F 34.5 °F 30.15 in ESE 4.0 mph 8.0 mph 56% 0.00 in 0.00 W/m2
05:20 49.3 °F 34.3 °F 30.15 in Calm   7.0 mph 56% 0.00 in 0.00 W/m2
05:26 49.2 °F 35.5 °F 30.15 in ESE 2.0 mph 8.0 mph 59% 0.00 in 0.00 W/m2
05:30 49.0 °F 35.7 °F 30.15 in Calm   6.0 mph 60% 0.00 in 0.00 W/m2
05:36 48.9 °F 35.2 °F 30.15 in Calm   7.0 mph 59% 0.00 in 0.00 W/m2
05:41 48.8 °F 34.7 °F 30.15 in Calm   6.0 mph 58% 0.00 in 0.00 W/m2
05:46 48.8 °F 35.1 °F 30.15 in Calm   8.0 mph 59% 0.00 in 0.00 W/m2
05:51 48.8 °F 35.1 °F 30.15 in Calm   7.0 mph 59% 0.00 in 0.00 W/m2
05:56 48.8 °F 35.1 °F 30.15 in Calm   14.0 mph 59% 0.00 in 0.00 W/m2
06:01 48.7 °F 34.6 °F 30.16 in Calm   5.0 mph 58% 0.00 in 0.00 W/m2
06:06 48.8 °F 34.7 °F 30.16 in Calm   6.0 mph 58% 0.00 in 0.00 W/m2
06:11 48.8 °F 34.7 °F 30.16 in Calm   8.0 mph 58% 0.00 in 0.00 W/m2
06:16 48.8 °F 34.3 °F 30.16 in ESE 1.0 mph 7.0 mph 57% 0.00 in 0.00 W/m2
06:21 48.8 °F 35.1 °F 30.16 in ESE 5.0 mph 8.0 mph 59% 0.00 in 0.00 W/m2
06:26 48.7 °F 34.6 °F 30.16 in ESE 1.0 mph 9.0 mph 58% 0.00 in 0.00 W/m2
06:31 48.7 °F 34.6 °F 30.16 in ESE 1.0 mph 6.0 mph 58% 0.00 in 0.00 W/m2
06:36 48.7 °F 34.2 °F 30.16 in Calm   5.0 mph 57% 0.00 in 0.00 W/m2
06:41 48.7 °F 33.7 °F 30.16 in ESE 1.0 mph 7.0 mph 56% 0.00 in 0.00 W/m2
06:46 48.8 °F 34.3 °F 30.16 in ESE 1.0 mph 8.0 mph 57% 0.00 in 0.00 W/m2
06:51 49.0 °F 34.5 °F 30.16 in Calm   6.0 mph 57% 0.00 in 0.00 W/m2
06:56 49.0 °F 34.5 °F 30.16 in ESE 5.0 mph 9.0 mph 57% 0.00 in 0.00 W/m2
07:01 49.0 °F 34.9 °F 30.16 in East 1.0 mph 8.0 mph 58% 0.00 in 0.00 W/m2
07:06 49.0 °F 34.9 °F 30.16 in East 1.0 mph 6.0 mph 58% 0.00 in 0.00 W/m2
07:11 49.0 °F 34.0 °F 30.17 in East 2.0 mph 8.0 mph 56% 0.00 in 0.00 W/m2
07:16 48.9 °F 33.5 °F 30.17 in East 1.0 mph 9.0 mph 55% 0.00 in 5.00 W/m2
07:17 49.0 °F 34.0 °F 30.17 in East 4.0 mph 4.0 mph 56% 0.00 in 5.00 W/m2
07:22 49.0 °F 34.0 °F 30.17 in ESE 2.0 mph 6.0 mph 56% 0.00 in 7.00 W/m2
07:27 49.0 °F 33.5 °F 30.17 in ESE 1.0 mph 2.0 mph 55% 0.00 in 11.00 W/m2
07:32 49.1 °F 34.5 °F 30.17 in East 1.0 mph 14.0 mph 57% 0.00 in 14.00 W/m2
07:37 49.2 °F 34.2 °F 30.17 in ESE 4.0 mph 6.0 mph 56% 0.00 in 16.00 W/m2
07:42 49.3 °F 34.3 °F 30.17 in Calm   16.0 mph 56% 0.00 in 23.00 W/m2
07:47 49.3 °F 34.3 °F 30.17 in SE 11.0 mph 14.0 mph 56% 0.00 in 32.00 W/m2
07:52 49.3 °F 34.3 °F 30.17 in Calm   18.0 mph 56% 0.00 in 49.00 W/m2
07:57 49.4 °F 33.9 °F 30.17 in ESE 12.0 mph 16.0 mph 55% 0.00 in 56.00 W/m2
08:02 49.4 °F 33.9 °F 30.17 in East 9.0 mph 19.0 mph 55% 0.00 in 77.00 W/m2
08:07 49.6 °F 34.1 °F 30.17 in Calm   14.0 mph 55% 0.00 in 95.00 W/m2
08:12 49.7 °F 34.7 °F 30.17 in ESE 4.0 mph 19.0 mph 56% 0.00 in 113.00 W/m2
08:17 49.8 °F 33.4 °F 30.17 in SE 14.0 mph 19.0 mph 53% 0.00 in 137.00 W/m2
08:22 50.1 °F 33.7 °F 30.17 in ESE 1.0 mph 6.0 mph 53% 0.00 in 142.00 W/m2
08:27 50.3 °F 33.4 °F 30.17 in ESE 1.0 mph 9.0 mph 52% 0.00 in 179.00 W/m2
08:32 50.5 °F 33.5 °F 30.17 in ESE 5.0 mph 12.0 mph 52% 0.00 in 202.00 W/m2
08:37 50.8 °F 33.3 °F 30.17 in SE 6.0 mph 14.0 mph 51% 0.00 in 227.00 W/m2
08:42 51.1 °F 34.1 °F 30.17 in ESE 1.0 mph 15.0 mph 52% 0.00 in 246.00 W/m2
08:47 51.4 °F 33.9 °F 30.17 in ESE 4.0 mph 12.0 mph 51% 0.00 in 262.00 W/m2
08:52 51.7 °F 33.7 °F 30.17 in ESE 2.0 mph 15.0 mph 50% 0.00 in 283.00 W/m2
08:57 51.9 °F 34.4 °F 30.17 in ESE 1.0 mph 17.0 mph 51% 0.00 in 311.00 W/m2
09:02 52.2 °F 35.1 °F 30.17 in ESE 2.0 mph 16.0 mph 52% 0.00 in 330.00 W/m2
09:07 52.4 °F 35.3 °F 30.17 in East 16.0 mph 16.0 mph 52% 0.00 in 352.00 W/m2
09:12 52.7 °F 35.6 °F 30.17 in East 2.0 mph 13.0 mph 52% 0.00 in 371.00 W/m2
09:17 52.9 °F 35.8 °F 30.17 in East 1.0 mph 12.0 mph 52% 0.00 in 383.00 W/m2
09:22 53.2 °F 35.6 °F 30.17 in ESE 4.0 mph 14.0 mph 51% 0.00 in 404.00 W/m2
09:23 53.3 °F 35.7 °F 30.17 in East 11.0 mph 14.0 mph 51% 0.00 in 410.00 W/m2
09:28 53.5 °F 34.8 °F 30.17 in East 1.0 mph 13.0 mph 49% 0.00 in 422.00 W/m2
09:33 53.9 °F 35.7 °F 30.17 in ESE 1.0 mph 14.0 mph 50% 0.00 in 439.00 W/m2
09:38 54.3 °F 35.0 °F 30.17 in ESE 8.0 mph 12.0 mph 48% 0.00 in 457.00 W/m2
09:43 54.6 °F 34.8 °F 30.17 in ESE 1.0 mph 7.0 mph 47% 0.00 in 473.00 W/m2
09:48 55.0 °F 36.2 °F 30.17 in East 2.0 mph 13.0 mph 49% 0.00 in 487.00 W/m2
09:53 55.3 °F 36.5 °F 30.17 in ESE 4.0 mph 11.0 mph 49% 0.00 in 504.00 W/m2
09:58 55.8 °F 36.9 °F 30.17 in ESE 2.0 mph 5.0 mph 49% 0.00 in 520.00 W/m2
10:03 56.1 °F 36.7 °F 30.18 in Calm   5.0 mph 48% 0.00 in 529.00 W/m2
10:08 56.5 °F 36.5 °F 30.17 in ESE 1.0 mph 5.0 mph 47% 0.00 in 545.00 W/m2
10:13 56.9 °F 38.5 °F 30.18 in ESE 2.0 mph 6.0 mph 50% 0.00 in 561.00 W/m2
10:18 57.3 °F 37.8 °F 30.17 in SE 4.0 mph 6.0 mph 48% 0.00 in 577.00 W/m2
10:23 57.7 °F 37.1 °F 30.17 in SE 1.0 mph 7.0 mph 46% 0.00 in 589.00 W/m2
10:28 58.2 °F 35.8 °F 30.18 in SE 5.0 mph 12.0 mph 43% 0.00 in 603.00 W/m2
10:33 58.7 °F 35.7 °F 30.17 in SE 2.0 mph 6.0 mph 42% 0.00 in 617.00 W/m2
10:38 59.2 °F 36.1 °F 30.18 in Calm   1.0 mph 42% 0.00 in 629.00 W/m2
10:43 59.6 °F 37.7 °F 30.18 in SE 1.0 mph 6.0 mph 44% 0.00 in 640.00 W/m2
10:48 60.1 °F 38.7 °F 30.18 in Calm   1.0 mph 45% 0.00 in 652.00 W/m2
10:53 60.5 °F 39.1 °F 30.18 in Calm   1.0 mph 45% 0.00 in 664.00 W/m2
10:58 60.8 °F 40.5 °F 30.18 in Calm   4.0 mph 47% 0.00 in 675.00 W/m2
11:03 61.2 °F 40.3 °F 30.18 in Calm   1.0 mph 46% 0.00 in 689.00 W/m2
11:08 61.6 °F 41.2 °F 30.18 in SW 1.0 mph 6.0 mph 47% 0.00 in 696.00 W/m2
11:13 61.9 °F 43.1 °F 30.18 in Calm   2.0 mph 50% 0.00 in 708.00 W/m2
11:18 62.2 °F 43.3 °F 30.18 in Calm   1.0 mph 50% 0.00 in 721.00 W/m2
11:23 62.5 °F 42.0 °F 30.18 in SW 1.0 mph 1.0 mph 47% 0.00 in 726.00 W/m2
11:28 62.9 °F 41.8 °F 30.18 in Calm   2.0 mph 46% 0.00 in 737.00 W/m2
11:33 63.2 °F 42.1 °F 30.18 in Calm   7.0 mph 46% 0.00 in 740.00 W/m2
11:34 63.3 °F 42.8 °F 30.18 in South 2.0 mph 7.0 mph 47% 0.00 in 744.00 W/m2
11:39 63.8 °F 42.6 °F 30.18 in Calm   1.0 mph 46% 0.00 in 752.00 W/m2
11:44 64.4 °F 43.8 °F 30.17 in Calm   1.0 mph 47% 0.00 in 759.00 W/m2
11:49 64.9 °F 43.7 °F 30.17 in Calm   7.0 mph 46% 0.00 in 768.00 W/m2
11:54 65.4 °F 44.1 °F 30.17 in Calm   2.0 mph 46% 0.00 in 773.00 W/m2
11:59 66.0 °F 44.7 °F 30.17 in Calm     46% 0.00 in 782.00 W/m2
12:04 66.5 °F 46.2 °F 30.17 in Calm   1.0 mph 48% 0.00 in 788.00 W/m2
12:09 66.9 °F 45.5 °F 30.16 in Calm   1.0 mph 46% 0.00 in 793.00 W/m2
12:14 67.4 °F 45.9 °F 30.16 in Calm   2.0 mph 46% 0.00 in 798.00 W/m2
12:19 67.9 °F 45.2 °F 30.16 in Calm   2.0 mph 44% 0.00 in 803.00 W/m2
12:24 68.2 °F 45.5 °F 30.16 in South 5.0 mph 8.0 mph 44% 0.00 in 807.00 W/m2
12:29 68.5 °F 43.9 °F 30.16 in South 5.0 mph 5.0 mph 41% 0.00 in 810.00 W/m2
12:34 68.7 °F 44.1 °F 30.16 in SSW 1.0 mph 6.0 mph 41% 0.00 in 812.00 W/m2
12:39 68.9 °F 43.6 °F 30.16 in SW 5.0 mph 5.0 mph 40% 0.00 in 816.00 W/m2
12:45 69.1 °F 43.8 °F 30.15 in SSW 1.0 mph 9.0 mph 40% 0.00 in 819.00 W/m2
12:50 69.3 °F 44.0 °F 30.15 in Calm   9.0 mph 40% 0.00 in 819.00 W/m2
12:55 69.5 °F 44.2 °F 30.15 in SSE 1.0 mph 9.0 mph 40% 0.00 in 823.00 W/m2
13:00 69.7 °F 45.0 °F 30.15 in SSE 4.0 mph 8.0 mph 41% 0.00 in 823.00 W/m2
13:05 69.9 °F 45.2 °F 30.14 in South 2.0 mph 9.0 mph 41% 0.00 in 823.00 W/m2
13:10 70.2 °F 44.8 °F 30.14 in Calm   7.0 mph 40% 0.00 in 823.00 W/m2
13:15 70.4 °F 45.6 °F 30.14 in SW 6.0 mph 9.0 mph 41% 0.00 in 821.00 W/m2
13:20 70.6 °F 43.1 °F 30.14 in Calm   9.0 mph 37% 0.00 in 819.00 W/m2
13:25 70.9 °F 45.4 °F 30.14 in South 1.0 mph 3.0 mph 40% 0.00 in 816.00 W/m2
13:30 71.1 °F 46.2 °F 30.14 in Calm   9.0 mph 41% 0.00 in 816.00 W/m2
13:35 71.4 °F 45.8 °F 30.13 in SSW 1.0 mph 8.0 mph 40% 0.00 in 812.00 W/m2
13:40 71.7 °F 47.4 °F 30.13 in Calm   8.0 mph 42% 0.00 in 810.00 W/m2
13:45 71.9 °F 47.0 °F 30.13 in WSW 1.0 mph 9.0 mph 41% 0.00 in 809.00 W/m2
13:50 71.9 °F 47.0 °F 30.13 in WSW 5.0 mph 7.0 mph 41% 0.00 in 805.00 W/m2
13:55 71.8 °F 46.9 °F 30.13 in Calm   9.0 mph 41% 0.00 in 802.00 W/m2
14:00 71.8 °F 46.2 °F 30.13 in Calm   8.0 mph 40% 0.00 in 800.00 W/m2
14:05 71.7 °F 46.1 °F 30.13 in WSW 4.0 mph 6.0 mph 40% 0.00 in 793.00 W/m2
14:10 71.8 °F 45.5 °F 30.12 in Calm   10.0 mph 39% 0.00 in 789.00 W/m2
14:15 71.9 °F 47.0 °F 30.12 in Calm   10.0 mph 41% 0.00 in 786.00 W/m2
14:20 72.0 °F 47.0 °F 30.12 in WSW 1.0 mph 8.0 mph 41% 0.00 in 782.00 W/m2
14:25 71.9 °F 46.3 °F 30.12 in Calm   8.0 mph 40% 0.00 in 773.00 W/m2
14:30 71.8 °F 46.2 °F 30.12 in SSW 6.0 mph 7.0 mph 40% 0.00 in 766.00 W/m2
14:35 71.9 °F 46.3 °F 30.12 in SW 1.0 mph 8.0 mph 40% 0.00 in 759.00 W/m2
14:40 72.1 °F 45.8 °F 30.12 in Calm   1.0 mph 39% 0.00 in 751.00 W/m2
14:45 72.3 °F 46.0 °F 30.12 in Calm   9.0 mph 39% 0.00 in 744.00 W/m2
14:50 72.5 °F 45.5 °F 30.12 in WSW 3.0 mph 6.0 mph 38% 0.00 in 737.00 W/m2
14:55 72.6 °F 45.6 °F 30.12 in Calm   8.0 mph 38% 0.00 in 726.00 W/m2
15:00 72.5 °F 43.3 °F 30.11 in Calm   3.0 mph 35% 0.00 in 717.00 W/m2
15:05 72.4 °F 46.7 °F 30.11 in Calm   8.0 mph 40% 0.00 in 708.00 W/m2
15:10 72.3 °F 46.0 °F 30.11 in SW 1.0 mph 7.0 mph 39% 0.00 in 701.00 W/m2
15:15 72.2 °F 44.5 °F 30.11 in SW 5.0 mph 8.0 mph 37% 0.00 in 689.00 W/m2
15:20 72.2 °F 43.1 °F 30.11 in Calm   9.0 mph 35% 0.00 in 680.00 W/m2
15:25 72.2 °F 43.8 °F 30.11 in SSW 1.0 mph 9.0 mph 36% 0.00 in 666.00 W/m2
15:30 72.3 °F 43.1 °F 30.11 in Calm   8.0 mph 35% 0.00 in 657.00 W/m2
15:35 72.3 °F 44.6 °F 30.11 in Calm   6.0 mph 37% 0.00 in 643.00 W/m2
15:40 72.3 °F 44.6 °F 30.11 in WSW 1.0 mph 6.0 mph 37% 0.00 in 631.00 W/m2
15:45 72.2 °F 45.2 °F 30.10 in Calm   6.0 mph 38% 0.00 in 621.00 W/m2
15:50 72.2 °F 43.8 °F 30.11 in Calm   7.0 mph 36% 0.00 in 608.00 W/m2
15:55 72.1 °F 43.0 °F 30.10 in Calm   7.0 mph 35% 0.00 in 592.00 W/m2
16:01 72.1 °F 43.7 °F 30.11 in Calm   6.0 mph 36% 0.00 in 580.00 W/m2
16:06 72.0 °F 42.9 °F 30.11 in Calm   1.0 mph 35% 0.00 in 568.00 W/m2
16:11 71.9 °F 43.5 °F 30.10 in South 7.0 mph 9.0 mph 36% 0.00 in 550.00 W/m2
16:16 71.9 °F 44.9 °F 30.10 in Calm   11.0 mph 38% 0.00 in 536.00 W/m2
16:21 71.8 °F 45.5 °F 30.10 in SSE 1.0 mph 8.0 mph 39% 0.00 in 520.00 W/m2
16:26 71.7 °F 46.1 °F 30.10 in South 1.0 mph 7.0 mph 40% 0.00 in 508.00 W/m2
16:31 71.6 °F 45.4 °F 30.10 in Calm   6.0 mph 39% 0.00 in 490.00 W/m2
16:36 71.6 °F 46.7 °F 30.10 in Calm   8.0 mph 41% 0.00 in 475.00 W/m2
16:41 71.5 °F 46.6 °F 30.10 in WSW 1.0 mph 6.0 mph 41% 0.00 in 457.00 W/m2
16:46 71.4 °F 47.1 °F 30.10 in WSW 1.0 mph 4.0 mph 42% 0.00 in 443.00 W/m2
16:51 71.2 °F 45.7 °F 30.09 in Calm   2.0 mph 40% 0.00 in 427.00 W/m2
16:56 71.2 °F 45.7 °F 30.10 in Calm   7.0 mph 40% 0.00 in 410.00 W/m2
17:01 71.1 °F 45.6 °F 30.09 in SSW 2.0 mph 2.0 mph 40% 0.00 in 392.00 W/m2
17:06 71.0 °F 44.8 °F 30.09 in South 6.0 mph 8.0 mph 39% 0.00 in 378.00 W/m2
17:11 70.9 °F 45.4 °F 30.09 in South 6.0 mph 6.0 mph 40% 0.00 in 360.00 W/m2
17:16 70.8 °F 46.0 °F 30.09 in Calm   7.0 mph 41% 0.00 in 343.00 W/m2
17:21 70.7 °F 45.2 °F 30.09 in SW 2.0 mph 2.0 mph 40% 0.00 in 329.00 W/m2
17:26 70.7 °F 46.5 °F 30.09 in Calm   3.0 mph 42% 0.00 in 308.00 W/m2
17:31 70.5 °F 47.6 °F 30.09 in Calm   7.0 mph 44% 0.00 in 290.00 W/m2
17:36 70.4 °F 47.5 °F 30.08 in Calm   2.0 mph 44% 0.00 in 271.00 W/m2
17:41 70.2 °F 47.3 °F 30.08 in Calm     44% 0.00 in 257.00 W/m2
17:46 70.0 °F 47.1 °F 30.08 in Calm   1.0 mph 44% 0.00 in 237.00 W/m2
17:51 69.8 °F 47.5 °F 30.08 in Calm   2.0 mph 45% 0.00 in 216.00 W/m2
17:56 69.6 °F 46.8 °F 30.08 in Calm   2.0 mph 44% 0.00 in 195.00 W/m2
18:01 69.5 °F 46.0 °F 30.08 in Calm   1.0 mph 43% 0.00 in 174.00 W/m2
18:06 69.2 °F 47.0 °F 30.08 in SW 1.0 mph 1.0 mph 45% 0.00 in 151.00 W/m2
18:11 69.1 °F 47.5 °F 30.08 in Calm   3.0 mph 46% 0.00 in 132.00 W/m2
18:16 68.8 °F 46.0 °F 30.08 in Calm   2.0 mph 44% 0.00 in 111.00 W/m2
18:21 68.6 °F 47.0 °F 30.08 in Calm     46% 0.00 in 91.00 W/m2
18:26 68.4 °F 48.0 °F 30.08 in Calm   1.0 mph 48% 0.00 in 72.00 W/m2
18:31 67.9 °F 47.5 °F 30.09 in Calm     48% 0.00 in 56.00 W/m2
18:36 67.4 °F 47.6 °F 30.08 in Calm     49% 0.00 in 42.00 W/m2
18:41 66.8 °F 48.6 °F 30.08 in Calm     52% 0.00 in 30.00 W/m2
18:46 66.2 °F 47.6 °F 30.08 in Calm     51% 0.00 in 19.00 W/m2
18:51 65.9 °F 47.8 °F 30.08 in Calm     52% 0.00 in 16.00 W/m2
18:56 65.4 °F 48.3 °F 30.08 in Calm     54% 0.00 in 12.00 W/m2
19:01 64.7 °F 48.7 °F 30.08 in Calm     56% 0.00 in 11.00 W/m2
19:06 64.1 °F 48.6 °F 30.08 in Calm     57% 0.00 in 7.00 W/m2
19:11 63.5 °F 48.0 °F 30.08 in Calm     57% 0.00 in 5.00 W/m2
19:16 63.1 °F 48.6 °F 30.08 in Calm     59% 0.00 in 0.00 W/m2
19:21 62.5 °F 48.0 °F 30.08 in Calm     59% 0.00 in 0.00 W/m2
19:26 62.0 °F 48.0 °F 30.08 in Calm     60% 0.00 in 0.00 W/m2
19:31 61.6 °F 48.0 °F 30.09 in Calm     61% 0.00 in 0.00 W/m2
19:36 61.2 °F 47.7 °F 30.09 in Calm     61% 0.00 in 0.00 W/m2
19:41 60.9 °F 47.8 °F 30.09 in Calm     62% 0.00 in 0.00 W/m2
19:46 60.6 °F 48.0 °F 30.09 in Calm     63% 0.00 in 0.00 W/m2
19:51 60.3 °F 48.5 °F 30.09 in Calm     65% 0.00 in 0.00 W/m2
19:56 60.1 °F 48.7 °F 30.09 in Calm     66% 0.00 in 0.00 W/m2
20:01 59.9 °F 49.3 °F 30.09 in Calm     68% 0.00 in 0.00 W/m2
20:06 59.8 °F 49.2 °F 30.09 in Calm     68% 0.00 in 0.00 W/m2
20:11 59.7 °F 49.5 °F 30.09 in Calm     69% 0.00 in 0.00 W/m2
20:16 59.5 °F 49.3 °F 30.09 in Calm     69% 0.00 in 0.00 W/m2
20:21 59.5 °F 49.7 °F 30.09 in Calm     70% 0.00 in 0.00 W/m2
20:26 59.4 °F 49.6 °F 30.09 in Calm     70% 0.00 in 0.00 W/m2
20:31 59.2 °F 49.4 °F 30.09 in Calm     70% 0.00 in 0.00 W/m2
20:36 59.0 °F 49.2 °F 30.09 in Calm     70% 0.00 in 0.00 W/m2
20:41 58.9 °F 49.2 °F 30.09 in Calm     70% 0.00 in 0.00 W/m2
20:46 58.8 °F 49.0 °F 30.09 in Calm     70% 0.00 in 0.00 W/m2
20:51 58.8 °F 49.4 °F 30.09 in Calm     71% 0.00 in 0.00 W/m2
20:56 58.8 °F 49.4 °F 30.09 in Calm     71% 0.00 in 0.00 W/m2
21:01 58.7 °F 49.3 °F 30.09 in Calm     71% 0.00 in 0.00 W/m2
21:06 58.6 °F 49.2 °F 30.09 in Calm     71% 0.00 in 0.00 W/m2
21:11 58.5 °F 49.1 °F 30.09 in SSE 1.0 mph 4.0 mph 71% 0.00 in 0.00 W/m2
21:16 58.4 °F 48.7 °F 30.09 in ESE 4.0 mph 4.0 mph 70% 0.00 in 0.00 W/m2
21:21 58.4 °F 48.7 °F 30.09 in ESE 2.0 mph 4.0 mph 70% 0.00 in 0.00 W/m2
21:27 58.3 °F 48.2 °F 30.09 in Calm   7.0 mph 69% 0.00 in 0.00 W/m2
21:32 58.3 °F 48.2 °F 30.09 in ESE 6.0 mph 6.0 mph 69% 0.00 in 0.00 W/m2
21:37 58.2 °F 47.7 °F 30.09 in ESE 2.0 mph 5.0 mph 68% 0.00 in 0.00 W/m2
21:42 58.2 °F 47.3 °F 30.10 in ESE 2.0 mph 6.0 mph 67% 0.00 in 0.00 W/m2
21:47 58.2 °F 47.3 °F 30.10 in ESE 7.0 mph 7.0 mph 67% 0.00 in 0.00 W/m2
21:52 58.1 °F 46.8 °F 30.10 in ESE 2.0 mph 7.0 mph 66% 0.00 in 0.00 W/m2
21:57 58.1 °F 46.4 °F 30.10 in ESE 1.0 mph 7.0 mph 65% 0.00 in 0.00 W/m2
22:02 58.1 °F 46.4 °F 30.10 in East 5.0 mph 5.0 mph 65% 0.00 in 0.00 W/m2
22:07 58.1 °F 46.4 °F 30.10 in ESE 6.0 mph 6.0 mph 65% 0.00 in 0.00 W/m2
22:12 58.1 °F 46.4 °F 30.10 in ESE 7.0 mph 7.0 mph 65% 0.00 in 0.00 W/m2
22:17 58.1 °F 46.0 °F 30.10 in Calm   2.0 mph 64% 0.00 in 0.00 W/m2
22:22 58.1 °F 45.6 °F 30.10 in ESE 1.0 mph 7.0 mph 63% 0.00 in 0.00 W/m2
22:27 58.0 °F 45.1 °F 30.10 in East 2.0 mph 8.0 mph 62% 0.00 in 0.00 W/m2
22:32 58.0 °F 44.6 °F 30.10 in East 5.0 mph 6.0 mph 61% 0.00 in 0.00 W/m2
22:37 58.0 °F 44.6 °F 30.10 in East 2.0 mph 6.0 mph 61% 0.00 in 0.00 W/m2
22:42 58.0 °F 44.6 °F 30.10 in Calm   8.0 mph 61% 0.00 in 0.00 W/m2
22:47 58.0 °F 43.8 °F 30.11 in ESE 1.0 mph 4.0 mph 59% 0.00 in 0.00 W/m2
22:52 57.9 °F 43.7 °F 30.11 in East 2.0 mph 6.0 mph 59% 0.00 in 0.00 W/m2
22:57 57.9 °F 43.7 °F 30.11 in ESE 1.0 mph 5.0 mph 59% 0.00 in 0.00 W/m2
23:02 57.8 °F 43.1 °F 30.10 in East 1.0 mph 2.0 mph 58% 0.00 in 0.00 W/m2
23:07 57.7 °F 43.5 °F 30.10 in ESE 2.0 mph 13.0 mph 59% 0.00 in 0.00 W/m2
23:12 57.6 °F 43.4 °F 30.10 in East 4.0 mph 5.0 mph 59% 0.00 in 0.00 W/m2
23:17 57.5 °F 42.8 °F 30.10 in East 11.0 mph 11.0 mph 58% 0.00 in 0.00 W/m2
23:22 57.3 °F 42.7 °F 30.10 in ESE 2.0 mph 13.0 mph 58% 0.00 in 0.00 W/m2
23:27 57.2 °F 42.6 °F 30.10 in East 5.0 mph 5.0 mph 58% 0.00 in 0.00 W/m2
23:32 57.1 °F 42.5 °F 30.10 in East 1.0 mph 2.0 mph 58% 0.00 in 0.00 W/m2
23:37 57.0 °F 41.9 °F 30.10 in Calm   13.0 mph 57% 0.00 in 0.00 W/m2
23:42 56.9 °F 41.8 °F 30.10 in ESE 1.0 mph 12.0 mph 57% 0.00 in 0.00 W/m2
23:47 56.8 °F 41.8 °F 30.10 in Calm   16.0 mph 57% 0.00 in 0.00 W/m2
23:52 56.7 °F 42.1 °F 30.10 in Calm   12.0 mph 58% 0.00 in 0.00 W/m2
23:57 56.6 °F 41.6 °F 30.10 in Calm   15.0 mph 57% 0.00 in 0.00 W/m2
Foresthill Weather
 WU-history PHP script courtesy of   Juneau County Weather.
powered by Cumulus v1.9.3 (1059)
Ambient Weather VWS v14.00
Top Contact Website Map Copyright © 2007 - 2018 Foresthillweather.com Never base important decisions on this or any weather information obtained from the Internet